Time;durP1;ratioP1;P1;durP2;ratioP2;P2;SDS_P1;SDS_P2;PMS_P1;PMS_P2;Temp;Humidity;BMP_temperature;BMP_pressure;BME280_temperature;BME280_humidity;BME280_pressure;Samples;Min_cycle;Max_cycle;Signal;HPM_P1;HPM_P2
2022/12/18 00:01:30;;;;;;;46.37;20.77;;;;;;;;;;4942211;28;20224;-63
2022/12/18 00:03:58;;;;;;;42.43;19.47;;;;;;;;;;4952862;28;20316;-61
2022/12/18 00:06:27;;;;;;;44.87;21.47;;;;;;;;;;4955299;28;20208;-62
2022/12/18 00:08:56;;;;;;;50.20;23.03;;;;;;;;;;4957746;28;20227;-61
2022/12/18 00:11:25;;;;;;;45.97;21.30;;;;;;;;;;4959122;28;20247;-61
2022/12/18 00:13:54;;;;;;;52.97;22.47;;;;;;;;;;4946542;28;20774;-62
2022/12/18 00:16:22;;;;;;;47.83;21.70;;;;;;;;;;4963030;28;20307;-63
2022/12/18 00:18:50;;;;;;;57.47;23.07;;;;;;;;;;4976145;28;20351;-61
2022/12/18 00:21:18;;;;;;;49.03;21.10;;;;;;;;;;4962473;28;20334;-61
2022/12/18 00:23:45;;;;;;;48.40;21.10;;;;;;;;;;4971711;28;20236;-61
2022/12/18 00:26:17;;;;;;;45.37;20.33;;;;;;;;;;4978302;28;20579;-63
2022/12/18 00:28:46;;;;;;;51.60;21.37;;;;;;;;;;4971242;28;20683;-61
2022/12/18 00:31:14;;;;;;;45.80;20.97;;;;;;;;;;4953962;28;20311;-61
2022/12/18 00:33:42;;;;;;;55.00;21.00;;;;;;;;;;4965286;28;20216;-60
2022/12/18 00:36:17;;;;;;;52.70;21.00;;;;;;;;;;4949800;28;20278;-60
2022/12/18 00:38:44;;;;;;;44.27;20.37;;;;;;;;;;4942463;28;20242;-62
2022/12/18 00:41:13;;;;;;;50.13;21.60;;;;;;;;;;4966061;28;20290;-61
2022/12/18 00:43:40;;;;;;;43.07;20.03;;;;;;;;;;4967080;28;20213;-61
2022/12/18 00:46:08;;;;;;;45.30;19.90;;;;;;;;;;4950534;28;20232;-62
2022/12/18 00:48:35;;;;;;;48.33;20.43;;;;;;;;;;4944058;28;20216;-62
2022/12/18 00:51:03;;;;;;;54.87;23.10;;;;;;;;;;4958559;28;20252;-62
2022/12/18 00:53:31;;;;;;;54.90;23.17;;;;;;;;;;4953264;28;20248;-60
2022/12/18 00:55:58;;;;;;;54.20;22.17;;;;;;;;;;4946777;28;20318;-62
2022/12/18 00:58:25;;;;;;;53.37;23.00;;;;;;;;;;4941989;28;20675;-62
2022/12/18 01:00:53;;;;;;;58.83;23.03;;;;;;;;;;4950181;28;20262;-63
2022/12/18 01:03:22;;;;;;;54.73;22.43;;;;;;;;;;4964436;28;20220;-62
2022/12/18 01:05:49;;;;;;;48.00;21.93;;;;;;;;;;4952425;28;20212;-62
2022/12/18 01:08:17;;;;;;;49.53;21.53;;;;;;;;;;4946503;28;20297;-60
2022/12/18 01:10:44;;;;;;;48.03;21.57;;;;;;;;;;4951783;28;20315;-63
2022/12/18 01:13:12;;;;;;;51.47;22.07;;;;;;;;;;4946175;28;20221;-60
2022/12/18 01:15:39;;;;;;;53.17;22.37;;;;;;;;;;4955203;28;20299;-63
2022/12/18 01:18:07;;;;;;;45.80;20.40;;;;;;;;;;4973249;28;20213;-62
2022/12/18 01:20:35;;;;;;;53.67;20.77;;;;;;;;;;4976886;28;20308;-62
2022/12/18 01:23:02;;;;;;;53.47;20.77;;;;;;;;;;4969370;28;20296;-62
2022/12/18 01:25:30;;;;;;;51.13;21.53;;;;;;;;;;4978511;28;20291;-63
2022/12/18 01:27:57;;;;;;;49.03;21.17;;;;;;;;;;4950144;28;20297;-62
2022/12/18 01:30:24;;;;;;;50.63;20.23;;;;;;;;;;4946311;28;20212;-60
2022/12/18 01:32:51;;;;;;;47.50;21.40;;;;;;;;;;4946526;28;20338;-61
2022/12/18 01:35:19;;;;;;;53.40;22.10;;;;;;;;;;4946095;28;20332;-61
2022/12/18 01:37:46;;;;;;;46.27;21.33;;;;;;;;;;4946297;28;20204;-61
2022/12/18 01:40:14;;;;;;;54.70;24.37;;;;;;;;;;4951529;28;20232;-62
2022/12/18 01:42:42;;;;;;;55.03;25.20;;;;;;;;;;4951688;28;20312;-61
2022/12/18 01:45:12;;;;;;;44.67;20.30;;;;;;;;;;4962477;28;20301;-63
2022/12/18 01:47:43;;;;;;;58.23;22.70;;;;;;;;;;4957466;28;20434;-64
2022/12/18 01:50:20;;;;;;;54.63;21.83;;;;;;;;;;4960288;28;20217;-61
2022/12/18 01:52:52;;;;;;;63.33;23.30;;;;;;;;;;4960924;28;21111;-63
2022/12/18 01:55:22;;;;;;;47.53;20.97;;;;;;;;;;4965669;28;20236;-61
2022/12/18 01:57:50;;;;;;;48.10;22.17;;;;;;;;;;4945816;28;20286;-61
2022/12/18 02:00:19;;;;;;;47.57;22.73;;;;;;;;;;4940249;28;20247;-61
2022/12/18 02:02:46;;;;;;;46.20;21.97;;;;;;;;;;4939552;28;20251;-61
2022/12/18 02:05:19;;;;;;;63.40;21.17;;;;;;;;;;4934190;28;20213;-62
2022/12/18 02:07:49;;;;;;;53.63;21.43;;;;;;;;;;4950040;28;20300;-62
2022/12/18 02:10:26;;;;;;;49.97;22.70;;;;;;;;;;4956844;28;22290;-62
2022/12/18 02:13:11;;;;;;;62.63;21.43;;;;;;;;;;4963652;28;20216;-61
2022/12/18 02:15:41;;;;;;;54.07;23.77;;;;;;;;;;4948190;28;20212;-61
2022/12/18 02:18:11;;;;;;;61.00;22.73;;;;;;;;;;4962478;28;20307;-62
2022/12/18 02:20:44;;;;;;;55.27;22.57;;;;;;;;;;4954246;28;20233;-62
2022/12/18 02:23:23;;;;;;;53.53;22.47;;;;;;;;;;4956138;28;20235;-61
2022/12/18 02:25:54;;;;;;;57.53;21.97;;;;;;;;;;4966976;28;20649;-62
2022/12/18 02:28:23;;;;;;;51.30;23.30;;;;;;;;;;4943018;28;20196;-60
2022/12/18 02:30:52;;;;;;;52.80;22.00;;;;;;;;;;4946117;28;20329;-60
2022/12/18 02:33:24;;;;;;;61.27;24.23;;;;;;;;;;4963285;28;20286;-62
2022/12/18 02:35:53;;;;;;;57.27;22.83;;;;;;;;;;4943136;28;20214;-62
2022/12/18 02:38:20;;;;;;;56.40;24.97;;;;;;;;;;4945536;28;20283;-62
2022/12/18 02:40:49;;;;;;;53.83;23.17;;;;;;;;;;4937406;28;20636;-62
2022/12/18 02:43:16;;;;;;;54.07;23.10;;;;;;;;;;4955019;28;20292;-61
2022/12/18 02:45:48;;;;;;;98.77;24.30;;;;;;;;;;4932675;28;20213;-62
2022/12/18 02:48:17;;;;;;;52.60;23.43;;;;;;;;;;4940679;28;20407;-62
2022/12/18 02:51:07;;;;;;;86.40;25.10;;;;;;;;;;4959681;28;20325;-61
2022/12/18 02:53:43;;;;;;;80.43;23.07;;;;;;;;;;4948989;28;20218;-61
2022/12/18 02:56:22;;;;;;;93.60;29.23;;;;;;;;;;4942268;28;20217;-61
2022/12/18 02:58:52;;;;;;;82.30;28.10;;;;;;;;;;4948132;28;20213;-62
2022/12/18 03:01:22;;;;;;;56.00;21.80;;;;;;;;;;4954900;28;20235;-61
2022/12/18 03:03:58;;;;;;;69.60;24.33;;;;;;;;;;4954106;28;20216;-61
2022/12/18 03:06:35;;;;;;;53.93;24.83;;;;;;;;;;4958156;28;20362;-61
2022/12/18 03:09:06;;;;;;;59.13;25.27;;;;;;;;;;4967061;28;20438;-60
2022/12/18 03:14:32;;;;;;;57.90;23.90;;;;;;;;;;4954683;28;20228;-61
2022/12/18 03:17:01;;;;;;;64.30;24.87;;;;;;;;;;4976721;28;20217;-62
2022/12/18 03:19:30;;;;;;;54.33;22.13;;;;;;;;;;4951710;28;20268;-60
2022/12/18 03:21:59;;;;;;;52.57;21.77;;;;;;;;;;4946161;28;20322;-60
2022/12/18 03:24:29;;;;;;;58.60;23.70;;;;;;;;;;4959625;28;20344;-60
2022/12/18 03:26:59;;;;;;;79.30;29.07;;;;;;;;;;4943548;28;20217;-62
2022/12/18 03:29:56;;;;;;;58.43;24.73;;;;;;;;;;4927604;28;21665;-61
2022/12/18 03:32:33;;;;;;;57.70;23.83;;;;;;;;;;4913057;28;20528;-62
2022/12/18 03:35:03;;;;;;;56.50;23.17;;;;;;;;;;4960662;28;20471;-60
2022/12/18 03:37:30;;;;;;;59.53;24.90;;;;;;;;;;4956598;28;20209;-61
2022/12/18 03:39:58;;;;;;;73.20;26.47;;;;;;;;;;4943212;28;20396;-61
2022/12/18 03:42:25;;;;;;;62.70;26.73;;;;;;;;;;4941264;28;20758;-60
2022/12/18 03:45:29;;;;;;;79.87;25.07;;;;;;;;;;4936437;28;20227;-62
2022/12/18 03:48:00;;;;;;;91.30;28.83;;;;;;;;;;4867112;29;20283;-61
2022/12/18 03:50:37;;;;;;;65.57;26.50;;;;;;;;;;4932523;28;20303;-60
2022/12/18 03:53:17;;;;;;;53.97;24.63;;;;;;;;;;4956830;28;20218;-60
2022/12/18 03:55:46;;;;;;;53.77;22.50;;;;;;;;;;4962521;28;20204;-61
2022/12/18 03:58:16;;;;;;;56.43;23.97;;;;;;;;;;4959156;28;20237;-61
2022/12/18 04:00:43;;;;;;;74.07;22.03;;;;;;;;;;4949223;28;20238;-61
2022/12/18 04:03:11;;;;;;;69.50;24.10;;;;;;;;;;4947945;28;20206;-61
2022/12/18 04:05:39;;;;;;;58.43;22.17;;;;;;;;;;4948833;28;20221;-62
2022/12/18 04:08:07;;;;;;;55.83;22.40;;;;;;;;;;4946547;28;20595;-61
2022/12/18 04:10:34;;;;;;;49.03;21.63;;;;;;;;;;4946451;28;21712;-60
2022/12/18 04:13:01;;;;;;;71.63;28.80;;;;;;;;;;4948017;28;20424;-61
2022/12/18 04:15:29;;;;;;;65.60;21.50;;;;;;;;;;4944954;28;20240;-61
2022/12/18 04:17:57;;;;;;;62.30;22.57;;;;;;;;;;4961270;28;20216;-61
2022/12/18 04:20:24;;;;;;;54.23;21.03;;;;;;;;;;4955265;28;20229;-64
2022/12/18 04:22:52;;;;;;;47.03;20.00;;;;;;;;;;4960491;28;20248;-61
2022/12/18 04:25:19;;;;;;;54.03;21.63;;;;;;;;;;4944065;28;20875;-60
2022/12/18 04:27:46;;;;;;;64.67;20.10;;;;;;;;;;4958616;28;20220;-63
2022/12/18 04:30:14;;;;;;;45.67;19.17;;;;;;;;;;4941971;28;20217;-63
2022/12/18 04:32:41;;;;;;;48.03;21.60;;;;;;;;;;4960593;28;20316;-61
2022/12/18 04:35:13;;;;;;;54.33;21.83;;;;;;;;;;4963299;28;24583;-60
2022/12/18 04:37:41;;;;;;;65.10;24.30;;;;;;;;;;4945494;28;20688;-62
2022/12/18 04:40:09;;;;;;;50.93;22.40;;;;;;;;;;4960264;28;20232;-61
2022/12/18 04:42:37;;;;;;;57.93;23.03;;;;;;;;;;4955244;28;20225;-62
2022/12/18 04:45:04;;;;;;;49.13;21.50;;;;;;;;;;4948975;28;20667;-63
2022/12/18 04:47:32;;;;;;;58.50;22.87;;;;;;;;;;4948752;28;20216;-62
2022/12/18 04:49:59;;;;;;;55.33;23.60;;;;;;;;;;4954236;28;20213;-61
2022/12/18 04:52:27;;;;;;;50.73;22.20;;;;;;;;;;4943090;28;20335;-61
2022/12/18 04:54:54;;;;;;;55.13;22.37;;;;;;;;;;4956715;28;20254;-63
2022/12/18 04:57:21;;;;;;;54.33;22.67;;;;;;;;;;4960402;28;20348;-62
2022/12/18 04:59:49;;;;;;;54.13;23.87;;;;;;;;;;4945231;28;20321;-63
2022/12/18 05:02:16;;;;;;;51.93;23.17;;;;;;;;;;4957194;28;20312;-60
2022/12/18 05:04:44;;;;;;;52.43;21.53;;;;;;;;;;4951938;28;20205;-63
2022/12/18 05:07:11;;;;;;;43.07;19.47;;;;;;;;;;4951375;28;20232;-63
2022/12/18 05:09:39;;;;;;;46.00;21.27;;;;;;;;;;4945758;28;20247;-61
2022/12/18 05:12:06;;;;;;;47.87;20.57;;;;;;;;;;4944277;28;20227;-60
2022/12/18 05:14:33;;;;;;;54.40;20.57;;;;;;;;;;4963271;28;20206;-62
2022/12/18 05:17:00;;;;;;;58.60;22.63;;;;;;;;;;4959206;28;20218;-61
2022/12/18 05:19:28;;;;;;;46.87;19.93;;;;;;;;;;4960483;28;20297;-63
2022/12/18 05:21:55;;;;;;;50.27;21.00;;;;;;;;;;4953540;28;26297;-62
2022/12/18 05:24:22;;;;;;;53.00;18.83;;;;;;;;;;4952659;28;20201;-64
2022/12/18 05:26:50;;;;;;;55.33;19.00;;;;;;;;;;4961686;28;20216;-61
2022/12/18 05:29:18;;;;;;;68.97;20.70;;;;;;;;;;4969595;28;20293;-61
2022/12/18 05:31:45;;;;;;;45.93;20.50;;;;;;;;;;4952380;28;20354;-63
2022/12/18 05:34:12;;;;;;;43.67;20.73;;;;;;;;;;4961000;28;20212;-61
2022/12/18 05:36:40;;;;;;;45.33;19.87;;;;;;;;;;4965629;28;28442;-59
2022/12/18 05:39:08;;;;;;;57.43;20.43;;;;;;;;;;4948318;28;20205;-62
2022/12/18 05:41:35;;;;;;;51.33;20.07;;;;;;;;;;4946827;28;20323;-62
2022/12/18 05:44:02;;;;;;;52.20;19.47;;;;;;;;;;4963943;28;20291;-59
2022/12/18 05:46:31;;;;;;;50.83;20.13;;;;;;;;;;4959447;28;20681;-60
2022/12/18 05:49:02;;;;;;;50.00;20.57;;;;;;;;;;4944356;28;20220;-63
2022/12/18 05:51:29;;;;;;;46.10;20.30;;;;;;;;;;4942755;28;20677;-61
2022/12/18 05:53:57;;;;;;;51.87;21.30;;;;;;;;;;4940414;28;20307;-61
2022/12/18 05:56:24;;;;;;;49.90;20.97;;;;;;;;;;4963510;28;20216;-61
2022/12/18 05:58:52;;;;;;;47.90;19.80;;;;;;;;;;4963464;28;20208;-62
2022/12/18 06:01:22;;;;;;;54.00;22.03;;;;;;;;;;4962942;28;20256;-60
2022/12/18 06:03:49;;;;;;;53.80;23.40;;;;;;;;;;4949367;28;20299;-62
2022/12/18 06:06:18;;;;;;;45.60;20.67;;;;;;;;;;4947437;28;20301;-62
2022/12/18 06:08:46;;;;;;;52.40;20.83;;;;;;;;;;4956028;28;21611;-62
2022/12/18 06:11:13;;;;;;;48.43;20.23;;;;;;;;;;4939434;28;20257;-61
2022/12/18 06:13:41;;;;;;;52.90;22.40;;;;;;;;;;4953751;28;20248;-61
2022/12/18 06:16:08;;;;;;;55.17;21.90;;;;;;;;;;4941484;28;20714;-61
2022/12/18 06:18:36;;;;;;;50.20;19.70;;;;;;;;;;4931870;28;20222;-62
2022/12/18 06:21:03;;;;;;;47.63;21.17;;;;;;;;;;4953108;28;20231;-61
2022/12/18 06:23:31;;;;;;;50.57;20.47;;;;;;;;;;4950627;28;20220;-60
2022/12/18 06:25:59;;;;;;;43.13;20.63;;;;;;;;;;4957419;28;20681;-62
2022/12/18 06:28:27;;;;;;;45.60;20.27;;;;;;;;;;4939779;28;20462;-61
2022/12/18 06:30:54;;;;;;;49.30;21.90;;;;;;;;;;4961226;28;20745;-61
2022/12/18 06:33:21;;;;;;;45.47;20.10;;;;;;;;;;4964703;28;20397;-61
2022/12/18 06:35:49;;;;;;;49.93;21.57;;;;;;;;;;4945521;28;20260;-61
2022/12/18 06:38:16;;;;;;;45.03;21.20;;;;;;;;;;4939260;28;20349;-61
2022/12/18 06:40:43;;;;;;;45.17;18.63;;;;;;;;;;4945181;28;20333;-62
2022/12/18 06:43:10;;;;;;;42.63;19.50;;;;;;;;;;4967511;28;20265;-59
2022/12/18 06:45:38;;;;;;;43.73;20.03;;;;;;;;;;4953960;28;20300;-60
2022/12/18 06:48:05;;;;;;;47.53;20.30;;;;;;;;;;4971422;28;20206;-64
2022/12/18 06:50:32;;;;;;;61.33;21.67;;;;;;;;;;4957528;28;20309;-62
2022/12/18 06:53:00;;;;;;;49.27;20.80;;;;;;;;;;4961232;28;20307;-62
2022/12/18 06:55:28;;;;;;;46.23;19.10;;;;;;;;;;4961292;28;20213;-61
2022/12/18 06:57:56;;;;;;;58.47;20.77;;;;;;;;;;4967786;28;20289;-63
2022/12/18 07:00:23;;;;;;;49.77;19.17;;;;;;;;;;4941171;28;20293;-60
2022/12/18 07:02:50;;;;;;;45.37;19.93;;;;;;;;;;4948898;28;20204;-62
2022/12/18 07:05:18;;;;;;;52.23;19.23;;;;;;;;;;4960504;28;20202;-61
2022/12/18 07:07:45;;;;;;;47.40;18.50;;;;;;;;;;4960126;28;20197;-62
2022/12/18 07:10:12;;;;;;;55.53;20.00;;;;;;;;;;4939409;28;20682;-62
2022/12/18 07:12:40;;;;;;;47.47;19.60;;;;;;;;;;4957606;28;20309;-61
2022/12/18 07:15:08;;;;;;;59.27;21.00;;;;;;;;;;4942953;28;20216;-61
2022/12/18 07:17:35;;;;;;;47.50;19.03;;;;;;;;;;4938530;28;20215;-61
2022/12/18 07:20:04;;;;;;;54.70;20.63;;;;;;;;;;4968380;28;20214;-60
2022/12/18 07:22:31;;;;;;;47.60;20.23;;;;;;;;;;4957989;28;20306;-61
2022/12/18 07:24:59;;;;;;;53.00;21.10;;;;;;;;;;4957210;28;20301;-61
2022/12/18 07:27:27;;;;;;;61.07;23.17;;;;;;;;;;4967290;28;20571;-60
2022/12/18 07:29:54;;;;;;;61.43;23.10;;;;;;;;;;4942223;28;20690;-62
2022/12/18 07:32:22;;;;;;;55.10;20.90;;;;;;;;;;4955370;28;20769;-62
2022/12/18 07:34:49;;;;;;;52.60;21.47;;;;;;;;;;4952751;28;20208;-61
2022/12/18 07:37:16;;;;;;;56.23;21.37;;;;;;;;;;4957010;28;20395;-62
2022/12/18 07:39:44;;;;;;;57.20;22.00;;;;;;;;;;4955481;28;20272;-61
2022/12/18 07:45:09;;;;;;;60.73;23.93;;;;;;;;;;4964548;28;20654;-62
2022/12/18 07:47:36;;;;;;;72.60;28.03;;;;;;;;;;4960702;28;20610;-62
2022/12/18 07:50:04;;;;;;;66.67;22.47;;;;;;;;;;4971773;28;20699;-61
2022/12/18 07:52:32;;;;;;;67.17;21.80;;;;;;;;;;4979047;28;20688;-61
2022/12/18 07:55:00;;;;;;;63.67;20.70;;;;;;;;;;4973267;28;20212;-61
2022/12/18 07:57:27;;;;;;;57.07;22.53;;;;;;;;;;4952898;28;20216;-61
2022/12/18 08:00:16;;;;;;;69.03;20.73;;;;;;;;;;4972792;28;20565;-61
2022/12/18 08:02:43;;;;;;;52.97;20.87;;;;;;;;;;4949111;28;20232;-60
2022/12/18 08:05:10;;;;;;;54.27;20.43;;;;;;;;;;4952634;28;20212;-61
2022/12/18 08:07:38;;;;;;;55.67;19.00;;;;;;;;;;4946788;28;20204;-61
2022/12/18 08:10:06;;;;;;;49.50;21.23;;;;;;;;;;4970077;28;20328;-61
2022/12/18 08:12:34;;;;;;;70.27;23.60;;;;;;;;;;4973081;28;20268;-61
2022/12/18 08:15:01;;;;;;;61.20;27.80;;;;;;;;;;4968198;28;20308;-61
2022/12/18 08:17:28;;;;;;;60.00;27.00;;;;;;;;;;4948646;28;20213;-62
2022/12/18 08:19:56;;;;;;;55.50;24.20;;;;;;;;;;4950805;28;20311;-61
2022/12/18 08:22:23;;;;;;;61.17;25.53;;;;;;;;;;4956191;28;20249;-61
2022/12/18 08:24:51;;;;;;;56.87;20.90;;;;;;;;;;4953847;28;20623;-62
2022/12/18 08:27:18;;;;;;;58.90;23.87;;;;;;;;;;4956041;28;20208;-62
2022/12/18 08:29:57;;;;;;;56.27;21.23;;;;;;;;;;4955728;28;20657;-62
2022/12/18 08:32:26;;;;;;;54.67;21.93;;;;;;;;;;4967680;28;20226;-60
2022/12/18 08:34:54;;;;;;;52.43;20.77;;;;;;;;;;4960154;28;20411;-61
2022/12/18 08:37:21;;;;;;;50.83;21.23;;;;;;;;;;4978422;28;20286;-61
2022/12/18 08:39:49;;;;;;;49.53;20.97;;;;;;;;;;4970642;28;20251;-62
2022/12/18 08:45:02;;;;;;;55.60;21.80;;;;;;;;;;4961307;28;20204;-62
2022/12/18 08:47:30;;;;;;;49.70;20.27;;;;;;;;;;4969359;28;20305;-61
2022/12/18 08:49:57;;;;;;;54.70;21.77;;;;;;;;;;4947722;28;20655;-62
2022/12/18 08:52:25;;;;;;;49.80;21.30;;;;;;;;;;4948518;28;20263;-62
2022/12/18 08:54:52;;;;;;;48.83;19.37;;;;;;;;;;4947691;28;20218;-63
2022/12/18 08:57:20;;;;;;;47.57;19.40;;;;;;;;;;4964831;28;20313;-60
2022/12/18 08:59:48;;;;;;;44.50;20.53;;;;;;;;;;4950966;28;20345;-61
2022/12/18 09:02:15;;;;;;;49.47;21.57;;;;;;;;;;4949985;28;20725;-62
2022/12/18 09:04:43;;;;;;;53.73;21.10;;;;;;;;;;4949776;28;20224;-61
2022/12/18 09:07:13;;;;;;;47.13;20.30;;;;;;;;;;4948226;28;20351;-63
2022/12/18 09:09:40;;;;;;;54.33;22.77;;;;;;;;;;4965967;28;20220;-62
2022/12/18 09:12:09;;;;;;;49.23;20.40;;;;;;;;;;4941572;28;20239;-62
2022/12/18 09:14:36;;;;;;;51.00;22.33;;;;;;;;;;4945953;28;21339;-61
2022/12/18 09:17:03;;;;;;;49.93;20.40;;;;;;;;;;4948852;28;20288;-63
2022/12/18 09:19:32;;;;;;;45.17;20.20;;;;;;;;;;4955684;28;20218;-62
2022/12/18 09:21:59;;;;;;;51.60;21.17;;;;;;;;;;4956022;28;20230;-61
2022/12/18 09:24:27;;;;;;;46.43;21.67;;;;;;;;;;4941077;28;20289;-63
2022/12/18 09:26:55;;;;;;;53.93;23.77;;;;;;;;;;4943583;28;20303;-60
2022/12/18 09:29:24;;;;;;;57.57;23.83;;;;;;;;;;4937289;28;20226;-61
2022/12/18 09:31:51;;;;;;;54.43;22.30;;;;;;;;;;4941791;28;20235;-61
2022/12/18 09:34:21;;;;;;;63.77;22.57;;;;;;;;;;4944574;28;20345;-61
2022/12/18 09:36:49;;;;;;;60.83;23.80;;;;;;;;;;4939708;28;20215;-63
2022/12/18 09:39:16;;;;;;;49.47;22.03;;;;;;;;;;4952971;28;20215;-63
2022/12/18 09:41:49;;;;;;;58.27;23.23;;;;;;;;;;4944723;28;20238;-60
2022/12/18 09:44:33;;;;;;;51.23;22.80;;;;;;;;;;4967644;28;20214;-61
2022/12/18 09:47:16;;;;;;;47.63;21.43;;;;;;;;;;4961924;28;20214;-62
2022/12/18 09:49:48;;;;;;;58.27;23.33;;;;;;;;;;4953731;28;20218;-62
2022/12/18 09:52:22;;;;;;;53.10;22.13;;;;;;;;;;4971950;28;20298;-60
2022/12/18 09:54:52;;;;;;;52.17;23.13;;;;;;;;;;4971505;28;20302;-61
2022/12/18 09:57:22;;;;;;;49.27;21.57;;;;;;;;;;4972843;28;20215;-61
2022/12/18 09:59:59;;;;;;;54.20;22.13;;;;;;;;;;4963779;28;20215;-62
2022/12/18 10:02:27;;;;;;;48.27;21.47;;;;;;;;;;4973252;28;21739;-60
2022/12/18 10:05:06;;;;;;;50.30;22.17;;;;;;;;;;4971665;28;20212;-62
2022/12/18 10:07:43;;;;;;;52.83;22.33;;;;;;;;;;4947931;28;20687;-63
2022/12/18 10:10:23;;;;;;;49.57;23.90;;;;;;;;;;4951816;28;20220;-62
2022/12/18 10:12:54;;;;;;;47.43;21.57;;;;;;;;;;4957709;28;20216;-63
2022/12/18 10:15:33;;;;;;;56.57;25.07;;;;;;;;;;4968278;28;20586;-60
2022/12/18 10:18:07;;;;;;;59.80;24.83;;;;;;;;;;4972657;28;20231;-62
2022/12/18 10:20:38;;;;;;;48.83;22.90;;;;;;;;;;4964937;28;20224;-63
2022/12/18 10:23:05;;;;;;;49.00;23.40;;;;;;;;;;4953465;28;20307;-62
2022/12/18 10:25:33;;;;;;;45.30;21.07;;;;;;;;;;4948707;28;20208;-61
2022/12/18 10:28:07;;;;;;;47.30;22.50;;;;;;;;;;4955129;28;20207;-60
2022/12/18 10:30:35;;;;;;;48.33;22.43;;;;;;;;;;4951042;28;20731;-63
2022/12/18 10:33:03;;;;;;;45.50;21.53;;;;;;;;;;4949069;28;20673;-63
2022/12/18 10:35:30;;;;;;;46.77;22.40;;;;;;;;;;4962478;28;20212;-60
2022/12/18 10:38:24;;;;;;;42.37;20.27;;;;;;;;;;4956709;28;20266;-60
2022/12/18 10:40:53;;;;;;;43.30;20.43;;;;;;;;;;4961307;28;20267;-60
2022/12/18 10:43:31;;;;;;;47.97;21.50;;;;;;;;;;4981433;28;20243;-61
2022/12/18 10:46:00;;;;;;;67.87;23.57;;;;;;;;;;4977848;28;20208;-61
2022/12/18 10:48:29;;;;;;;57.50;22.57;;;;;;;;;;4977095;28;20208;-61
2022/12/18 10:50:57;;;;;;;45.83;20.80;;;;;;;;;;4947751;28;20660;-61
2022/12/18 10:53:41;;;;;;;57.07;22.60;;;;;;;;;;4968833;28;20549;-61
2022/12/18 10:56:09;;;;;;;49.87;21.17;;;;;;;;;;4941698;28;20283;-62
2022/12/18 10:58:37;;;;;;;43.13;20.53;;;;;;;;;;4963126;28;20220;-61
2022/12/18 11:01:14;;;;;;;45.07;22.40;;;;;;;;;;4974512;28;20264;-62
2022/12/18 11:03:43;;;;;;;48.00;21.40;;;;;;;;;;4973495;28;20206;-63
2022/12/18 11:06:16;;;;;;;47.77;21.43;;;;;;;;;;4970608;28;20245;-61
2022/12/18 11:08:45;;;;;;;40.67;20.33;;;;;;;;;;4972437;28;20208;-61
2022/12/18 11:11:23;;;;;;;46.73;20.83;;;;;;;;;;4973834;28;20688;-62
2022/12/18 11:13:53;;;;;;;44.83;20.00;;;;;;;;;;4971337;28;20829;-61
2022/12/18 11:16:21;;;;;;;53.67;24.30;;;;;;;;;;4972227;28;20282;-62
2022/12/18 11:18:49;;;;;;;37.63;20.13;;;;;;;;;;4948256;28;20204;-62
2022/12/18 11:21:16;;;;;;;38.63;19.13;;;;;;;;;;4956534;28;20250;-61
2022/12/18 11:23:51;;;;;;;38.83;18.73;;;;;;;;;;4957657;28;20216;-62
2022/12/18 11:26:19;;;;;;;40.27;19.90;;;;;;;;;;4968538;28;20227;-62
2022/12/18 11:28:49;;;;;;;48.50;23.17;;;;;;;;;;4963366;28;20240;-63
2022/12/18 11:31:23;;;;;;;46.63;21.43;;;;;;;;;;4951356;28;20359;-62
2022/12/18 11:34:09;;;;;;;44.80;26.13;;;;;;;;;;4957248;28;20299;-62
2022/12/18 11:36:59;;;;;;;40.20;19.37;;;;;;;;;;4966091;28;20585;-61
2022/12/18 11:39:36;;;;;;;38.53;18.47;;;;;;;;;;4946759;28;20619;-62
2022/12/18 11:42:18;;;;;;;35.90;18.27;;;;;;;;;;4964203;28;20242;-62
2022/12/18 11:44:48;;;;;;;36.27;17.97;;;;;;;;;;4949479;28;20211;-61
2022/12/18 11:47:21;;;;;;;39.87;18.83;;;;;;;;;;4967899;28;20279;-61
2022/12/18 11:49:52;;;;;;;34.37;18.30;;;;;;;;;;4959900;28;20212;-60
2022/12/18 11:52:28;;;;;;;34.23;17.17;;;;;;;;;;4972506;28;20710;-61
2022/12/18 11:54:58;;;;;;;35.47;18.50;;;;;;;;;;4971078;28;20231;-61
2022/12/18 11:57:26;;;;;;;40.03;19.70;;;;;;;;;;4955244;28;20231;-63
2022/12/18 11:59:59;;;;;;;39.27;19.60;;;;;;;;;;4952697;28;20251;-61
2022/12/18 12:02:30;;;;;;;35.53;16.80;;;;;;;;;;4948122;28;20233;-61
2022/12/18 12:05:01;;;;;;;33.07;16.87;;;;;;;;;;4957893;28;20209;-62
2022/12/18 12:07:29;;;;;;;34.93;16.20;;;;;;;;;;4958706;28;20239;-62
2022/12/18 12:10:15;;;;;;;35.80;16.80;;;;;;;;;;4962992;28;20235;-61
2022/12/18 12:13:01;;;;;;;35.23;17.97;;;;;;;;;;4975700;28;20814;-63
2022/12/18 12:15:55;;;;;;;37.63;17.17;;;;;;;;;;4970545;28;20294;-63
2022/12/18 12:18:36;;;;;;;32.93;16.90;;;;;;;;;;4957321;28;20296;-61
2022/12/18 12:21:06;;;;;;;35.33;17.03;;;;;;;;;;4961331;28;20591;-62
2022/12/18 12:23:36;;;;;;;32.63;16.43;;;;;;;;;;4959429;28;20282;-61
2022/12/18 12:26:09;;;;;;;36.13;18.80;;;;;;;;;;4965430;28;20212;-62
2022/12/18 12:28:55;;;;;;;30.23;16.97;;;;;;;;;;4949649;28;20819;-62
2022/12/18 12:31:42;;;;;;;35.50;17.60;;;;;;;;;;4947257;28;20258;-63
2022/12/18 12:34:09;;;;;;;38.90;17.80;;;;;;;;;;4946001;28;20212;-62
2022/12/18 12:37:03;;;;;;;37.53;18.63;;;;;;;;;;4946714;28;20259;-60
2022/12/18 12:39:34;;;;;;;35.80;17.20;;;;;;;;;;4947990;28;20212;-63
2022/12/18 12:44:52;;;;;;;36.30;18.37;;;;;;;;;;4957787;28;20277;-62
2022/12/18 12:47:36;;;;;;;37.40;19.27;;;;;;;;;;4943470;28;20654;-62
2022/12/18 12:50:06;;;;;;;39.70;18.90;;;;;;;;;;4961631;28;20734;-61
2022/12/18 12:52:36;;;;;;;39.50;19.73;;;;;;;;;;4965680;28;20314;-62
2022/12/18 12:55:05;;;;;;;43.10;22.50;;;;;;;;;;4961383;28;21854;-61
2022/12/18 12:57:42;;;;;;;57.33;27.53;;;;;;;;;;4974312;28;20216;-63
2022/12/18 13:00:12;;;;;;;60.87;28.00;;;;;;;;;;4963406;28;20218;-61
2022/12/18 13:02:40;;;;;;;50.57;22.83;;;;;;;;;;4938049;28;20765;-62
2022/12/18 13:05:20;;;;;;;55.00;26.63;;;;;;;;;;4950344;28;20208;-62
2022/12/18 13:08:03;;;;;;;49.07;23.80;;;;;;;;;;4929210;28;20217;-62
2022/12/18 13:10:37;;;;;;;42.17;20.77;;;;;;;;;;4952755;28;20201;-61
2022/12/18 13:13:07;;;;;;;43.37;19.47;;;;;;;;;;4940685;28;20230;-61
2022/12/18 13:15:42;;;;;;;50.80;22.57;;;;;;;;;;4960000;28;20220;-61
2022/12/18 13:18:10;;;;;;;55.20;24.07;;;;;;;;;;4972191;28;20247;-61
2022/12/18 13:20:37;;;;;;;44.67;21.33;;;;;;;;;;4954140;28;20283;-62
2022/12/18 13:23:24;;;;;;;40.47;20.70;;;;;;;;;;4964700;28;23456;-63
2022/12/18 13:25:56;;;;;;;40.50;20.53;;;;;;;;;;4952412;28;20295;-62
2022/12/18 13:28:42;;;;;;;45.07;21.37;;;;;;;;;;4946913;28;20231;-61
2022/12/18 13:31:10;;;;;;;36.87;19.20;;;;;;;;;;4952447;28;20912;-62
2022/12/18 13:33:38;;;;;;;36.57;19.13;;;;;;;;;;4956351;28;20216;-61
2022/12/18 13:36:27;;;;;;;38.23;18.43;;;;;;;;;;4955359;28;20239;-62
2022/12/18 13:39:14;;;;;;;37.67;16.87;;;;;;;;;;4956269;28;20215;-61
2022/12/18 13:41:51;;;;;;;36.97;18.10;;;;;;;;;;4944600;28;20318;-63
2022/12/18 13:44:22;;;;;;;39.20;17.80;;;;;;;;;;4960836;28;20208;-63
2022/12/18 13:46:50;;;;;;;37.87;17.80;;;;;;;;;;4938882;28;20256;-61
2022/12/18 13:49:37;;;;;;;43.47;20.27;;;;;;;;;;4972977;28;21422;-61
2022/12/18 13:52:09;;;;;;;40.60;19.60;;;;;;;;;;4952378;28;20251;-62
2022/12/18 13:54:38;;;;;;;39.27;18.80;;;;;;;;;;4951139;28;20212;-61
2022/12/18 13:57:06;;;;;;;36.40;18.33;;;;;;;;;;4968864;28;20264;-61
2022/12/18 13:59:33;;;;;;;44.40;20.23;;;;;;;;;;4979030;28;20702;-61
2022/12/18 14:02:06;;;;;;;37.50;18.50;;;;;;;;;;4966535;28;20293;-61
2022/12/18 14:04:36;;;;;;;42.97;20.83;;;;;;;;;;4969064;28;20291;-62
2022/12/18 14:07:11;;;;;;;40.20;19.63;;;;;;;;;;4966972;28;20259;-61
2022/12/18 14:09:43;;;;;;;44.67;19.03;;;;;;;;;;4953514;28;20215;-61
2022/12/18 14:15:03;;;;;;;44.33;19.40;;;;;;;;;;4959247;28;20364;-62
2022/12/18 14:17:31;;;;;;;41.13;19.23;;;;;;;;;;4948365;28;20215;-60
2022/12/18 14:20:00;;;;;;;46.90;20.83;;;;;;;;;;4952205;28;20225;-63
2022/12/18 14:22:29;;;;;;;43.07;20.33;;;;;;;;;;4947040;28;20235;-62
2022/12/18 14:25:14;;;;;;;46.33;19.73;;;;;;;;;;4936144;28;20225;-61
2022/12/18 14:27:46;;;;;;;43.20;21.20;;;;;;;;;;4952655;28;20760;-62
2022/12/18 14:30:35;;;;;;;41.87;19.87;;;;;;;;;;4944107;28;20200;-62
2022/12/18 14:33:11;;;;;;;41.37;19.57;;;;;;;;;;4962938;28;20212;-61
2022/12/18 14:35:40;;;;;;;43.47;19.23;;;;;;;;;;4972034;28;20340;-62
2022/12/18 14:38:21;;;;;;;40.27;20.03;;;;;;;;;;4964424;28;20353;-62
2022/12/18 14:40:48;;;;;;;40.80;20.60;;;;;;;;;;4960915;28;20239;-61
2022/12/18 14:43:16;;;;;;;44.87;20.53;;;;;;;;;;4960282;28;20231;-62
2022/12/18 14:45:45;;;;;;;41.53;19.17;;;;;;;;;;4976936;28;20293;-62
2022/12/18 14:48:17;;;;;;;46.07;19.77;;;;;;;;;;4948893;28;20204;-62
2022/12/18 14:50:57;;;;;;;38.63;18.07;;;;;;;;;;4965395;28;20237;-63